Time;durP1;ratioP1;P1;durP2;ratioP2;P2;SDS_P1;SDS_P2;PMS_P1;PMS_P2;Temp;Humidity;BMP_temperature;BMP_pressure;BME280_temperature;BME280_humidity;BME280_pressure;Samples;Min_cycle;Max_cycle;Signal;HPM_P1;HPM_P2
2024/01/03 00:01:03;;;;;;;2.67;1.40;;;;;;;10.13;86.66;96177.16;4918771;29;20039;-72
2024/01/03 00:03:31;;;;;;;2.25;1.35;;;;;;;10.16;86.68;96176.59;4918163;29;20050;-71
2024/01/03 00:05:57;;;;;;;1.40;1.30;;;;;;;10.18;86.24;96179.78;4917487;29;20051;-71
2024/01/03 00:08:27;;;;;;;1.30;1.20;;;;;;;10.15;86.34;96166.94;4918002;29;20488;-71
2024/01/03 00:10:57;;;;;;;1.70;1.30;;;;;;;10.13;86.35;96183.34;4917430;29;20411;-71
2024/01/03 00:13:38;;;;;;;1.73;1.48;;;;;;;10.14;85.38;96181.47;4917635;29;20042;-71
2024/01/03 00:16:20;;;;;;;1.60;1.30;;;;;;;10.22;84.50;96181.59;4929945;29;20127;-71
2024/01/03 00:18:51;;;;;;;2.20;1.13;;;;;;;10.24;84.99;96173.25;4918563;29;20102;-70
2024/01/03 00:21:24;;;;;;;3.55;1.50;;;;;;;10.25;85.02;96182.91;4945049;29;20479;-71
2024/01/03 00:23:56;;;;;;;2.28;1.20;;;;;;;10.19;84.79;96173.34;4918197;29;20111;-71
2024/01/03 00:26:23;;;;;;;2.63;1.35;;;;;;;10.18;84.89;96174.41;4917394;29;20122;-71
2024/01/03 00:28:48;;;;;;;2.22;1.55;;;;;;;10.13;84.98;96166.41;4934697;29;20111;-71
2024/01/03 00:31:40;;;;;;;2.08;1.30;;;;;;;10.18;85.29;96179.78;4901577;29;20118;-71
2024/01/03 00:34:18;;;;;;;2.55;1.40;;;;;;;10.10;85.46;96188.50;4901345;29;20071;-71
2024/01/03 00:36:43;;;;;;;1.60;1.50;;;;;;;10.11;85.89;96179.31;4916724;29;20070;-71
2024/01/03 00:39:10;;;;;;;1.48;1.38;;;;;;;10.13;85.67;96182.53;4934370;29;20028;-71
2024/01/03 00:41:36;;;;;;;1.63;1.52;;;;;;;10.04;85.78;96168.13;4917265;29;20062;-72
2024/01/03 00:44:02;;;;;;;2.38;1.60;;;;;;;9.95;86.56;96176.06;4934188;29;20023;-72
2024/01/03 00:46:28;;;;;;;1.65;1.50;;;;;;;10.00;85.81;96188.63;4917293;29;20522;-70
2024/01/03 00:48:53;;;;;;;1.83;1.45;;;;;;;10.09;85.96;96198.44;4901528;29;20051;-71
2024/01/03 00:51:19;;;;;;;1.45;1.35;;;;;;;10.09;85.78;96197.63;4917128;29;20039;-71
2024/01/03 00:53:44;;;;;;;1.60;1.45;;;;;;;10.02;86.00;96197.19;4932935;29;20114;-70
2024/01/03 00:56:09;;;;;;;1.40;1.30;;;;;;;10.02;86.41;96197.19;4917043;29;20059;-71
2024/01/03 00:58:35;;;;;;;1.67;1.40;;;;;;;10.02;86.19;96208.75;4901481;29;20486;-72
2024/01/03 01:01:00;;;;;;;1.60;1.50;;;;;;;10.00;86.55;96215.50;4917122;29;20119;-71
2024/01/03 01:03:26;;;;;;;2.40;1.52;;;;;;;10.00;86.38;96210.13;4923319;29;20476;-70
2024/01/03 01:05:51;;;;;;;1.83;1.20;;;;;;;9.91;86.40;96207.31;4907943;29;20417;-71
2024/01/03 01:08:17;;;;;;;2.42;1.58;;;;;;;9.93;85.83;96220.44;4914257;29;20027;-71
2024/01/03 01:10:42;;;;;;;1.35;1.20;;;;;;;10.03;85.85;96215.75;4926540;29;20047;-72
2024/01/03 01:13:07;;;;;;;1.42;1.33;;;;;;;10.01;85.58;96206.38;4932255;29;20031;-71
2024/01/03 01:15:33;;;;;;;2.38;1.40;;;;;;;10.04;85.48;96211.97;4907154;29;20059;-70
2024/01/03 01:17:58;;;;;;;1.85;1.30;;;;;;;10.03;85.48;96212.25;4931341;29;20086;-72
2024/01/03 01:20:24;;;;;;;3.95;1.40;;;;;;;10.00;84.53;96204.75;4932622;29;20051;-71
2024/01/03 01:22:49;;;;;;;2.13;1.52;;;;;;;9.96;85.16;96211.81;4931152;29;20078;-70
2024/01/03 01:25:17;;;;;;;3.10;1.52;;;;;;;10.00;85.05;96215.50;4931750;29;20040;-70
2024/01/03 01:27:42;;;;;;;2.17;1.20;;;;;;;10.01;85.04;96215.22;4913677;29;20027;-70
2024/01/03 01:30:08;;;;;;;1.30;1.20;;;;;;;9.95;84.43;96215.56;4929813;29;20036;-69
2024/01/03 01:32:33;;;;;;;1.30;1.20;;;;;;;10.03;85.00;96231.09;4943362;29;20067;-70
2024/01/03 01:34:59;;;;;;;1.58;1.13;;;;;;;9.95;84.70;96212.88;4912754;29;20527;-71
2024/01/03 01:37:24;;;;;;;1.70;1.25;;;;;;;9.95;84.99;96224.44;4932821;29;20028;-70
2024/01/03 01:39:50;;;;;;;2.03;1.30;;;;;;;9.91;84.69;96228.00;4928381;29;20040;-71
2024/01/03 01:42:15;;;;;;;1.40;1.30;;;;;;;9.98;84.27;96231.16;4946658;29;20054;-71
2024/01/03 01:44:40;;;;;;;2.03;1.10;;;;;;;9.98;84.64;96239.22;4935299;29;20031;-71
2024/01/03 01:47:07;;;;;;;3.58;1.20;;;;;;;10.02;84.06;96237.53;4917160;29;20630;-71
2024/01/03 01:49:33;;;;;;;1.15;1.05;;;;;;;9.98;83.77;96255.34;4914130;29;20032;-70
2024/01/03 01:51:59;;;;;;;2.55;1.10;;;;;;;9.96;83.22;96242.19;4936894;29;20066;-70
2024/01/03 01:54:25;;;;;;;1.63;1.25;;;;;;;9.90;83.73;96231.75;4935084;29;20436;-70
2024/01/03 01:56:51;;;;;;;3.92;1.27;;;;;;;10.01;82.53;96228.66;4919820;29;20066;-70
2024/01/03 01:59:19;;;;;;;1.88;1.05;;;;;;;10.12;81.61;96248.19;4932895;29;20036;-71
2024/01/03 02:01:44;;;;;;;1.48;1.00;;;;;;;10.07;81.90;96253.59;4928377;29;20020;-71
2024/01/03 02:04:10;;;;;;;2.78;1.00;;;;;;;9.94;81.96;96228.22;4912365;29;20108;-70
2024/01/03 02:06:35;;;;;;;1.55;1.10;;;;;;;10.00;82.11;96242.41;4936130;29;20032;-70
2024/01/03 02:09:00;;;;;;;1.10;0.90;;;;;;;9.96;81.74;96226.06;4912578;29;20591;-70
2024/01/03 02:11:26;;;;;;;3.45;1.10;;;;;;;10.03;81.44;96241.84;4932662;29;20019;-70
2024/01/03 02:13:51;;;;;;;1.65;1.00;;;;;;;10.09;81.01;96251.44;4926972;29;20040;-70
2024/01/03 02:16:17;;;;;;;2.47;0.90;;;;;;;10.02;80.92;96250.97;4929846;29;20051;-70
2024/01/03 02:18:43;;;;;;;2.63;1.10;;;;;;;10.06;80.29;96260.88;4929553;29;20071;-70
2024/01/03 02:21:16;;;;;;;2.58;0.90;;;;;;;10.08;79.18;96252.53;4931892;29;20431;-70
2024/01/03 02:23:44;;;;;;;0.70;0.70;;;;;;;10.13;79.35;96252.47;4927587;29;20123;-70
2024/01/03 02:26:10;;;;;;;2.65;1.17;;;;;;;10.06;79.13;96246.66;4934895;29;20069;-71
2024/01/03 02:28:36;;;;;;;1.40;0.70;;;;;;;10.12;78.13;96262.47;4909309;29;20547;-70
2024/01/03 02:31:01;;;;;;;1.02;0.75;;;;;;;10.12;78.28;96250.91;4930023;29;20387;-70
2024/01/03 02:33:27;;;;;;;1.10;1.00;;;;;;;10.07;78.22;96242.84;4932962;29;20095;-70
2024/01/03 02:35:52;;;;;;;1.10;1.00;;;;;;;10.08;78.36;96255.22;4912988;29;20028;-70
2024/01/03 02:38:18;;;;;;;0.93;0.73;;;;;;;10.03;78.06;96250.72;4931075;29;20070;-71
2024/01/03 02:40:46;;;;;;;1.50;1.30;;;;;;;10.07;78.41;96256.31;4927876;29;20039;-70
2024/01/03 02:43:11;;;;;;;0.80;0.80;;;;;;;10.06;78.94;96262.78;4927777;29;20163;-70
2024/01/03 02:45:37;;;;;;;1.55;0.70;;;;;;;9.98;79.49;96268.78;4935196;29;20107;-70
2024/01/03 02:48:03;;;;;;;1.70;0.90;;;;;;;9.98;79.33;96260.72;4942587;29;20047;-70
2024/01/03 02:50:28;;;;;;;1.50;1.00;;;;;;;10.01;79.66;96260.16;4934211;29;20034;-70
2024/01/03 02:52:53;;;;;;;1.85;0.90;;;;;;;9.96;80.02;96265.59;4925898;29;20484;-71
2024/01/03 02:55:19;;;;;;;2.05;0.95;;;;;;;9.88;80.09;96266.22;4930310;29;20032;-71
2024/01/03 02:57:44;;;;;;;1.15;0.80;;;;;;;9.83;80.24;96231.31;4929378;29;20130;-71
2024/01/03 03:00:11;;;;;;;1.38;1.10;;;;;;;9.88;80.36;96267.00;4931732;29;20480;-71
2024/01/03 03:02:36;;;;;;;1.80;1.25;;;;;;;9.88;79.93;96258.94;4925368;29;20061;-71
2024/01/03 03:05:01;;;;;;;0.90;0.90;;;;;;;9.87;80.16;96272.69;4917027;29;20516;-71
2024/01/03 03:07:27;;;;;;;1.17;1.00;;;;;;;9.83;80.06;96258.19;4932610;29;20162;-71
2024/01/03 03:09:52;;;;;;;0.88;0.88;;;;;;;9.82;80.11;96262.00;4929441;29;20024;-71
2024/01/03 03:12:18;;;;;;;1.30;0.90;;;;;;;9.80;80.51;96274.91;4945023;29;20481;-71
2024/01/03 03:14:44;;;;;;;3.13;1.13;;;;;;;9.82;80.04;96287.00;4927823;29;20462;-71
2024/01/03 03:17:09;;;;;;;1.95;1.08;;;;;;;9.84;79.96;96282.13;4926926;29;20047;-71
2024/01/03 03:19:34;;;;;;;1.50;0.95;;;;;;;9.74;80.30;96264.22;4934096;29;20042;-71
2024/01/03 03:22:00;;;;;;;1.08;0.80;;;;;;;9.88;80.26;96299.28;4926847;29;20036;-71
2024/01/03 03:24:26;;;;;;;1.73;1.00;;;;;;;9.84;80.46;96298.25;4931290;29;20042;-70
2024/01/03 03:26:52;;;;;;;2.58;1.55;;;;;;;9.88;80.73;96293.91;4925661;29;20120;-70
2024/01/03 03:29:17;;;;;;;4.25;1.30;;;;;;;9.87;81.25;96302.25;4943967;29;20035;-70
2024/01/03 03:31:43;;;;;;;2.33;1.13;;;;;;;9.85;81.09;96293.69;4928342;29;20028;-71
2024/01/03 03:34:08;;;;;;;2.67;1.20;;;;;;;9.78;81.00;96283.25;4930397;29;20506;-70
2024/01/03 03:36:34;;;;;;;2.85;1.20;;;;;;;9.79;81.59;96294.81;4928223;29;20050;-71
2024/01/03 03:38:59;;;;;;;1.88;1.10;;;;;;;9.83;81.16;96295.84;4934878;29;20031;-71
2024/01/03 03:41:24;;;;;;;2.30;1.20;;;;;;;9.75;81.47;96273.88;4930903;29;20040;-70
2024/01/03 03:43:50;;;;;;;2.95;1.40;;;;;;;9.77;81.34;96286.25;4928297;29;20428;-71
2024/01/03 03:46:16;;;;;;;3.45;1.40;;;;;;;9.75;81.35;96295.38;4928805;29;20046;-71
2024/01/03 03:48:42;;;;;;;5.28;1.35;;;;;;;9.84;81.16;96286.69;4926308;29;20111;-70
2024/01/03 03:51:07;;;;;;;4.53;1.48;;;;;;;9.74;81.00;96279.53;4934216;29;20122;-71
2024/01/03 03:53:33;;;;;;;3.78;1.52;;;;;;;9.85;80.93;96293.69;4925523;29;20028;-71
2024/01/03 03:55:58;;;;;;;4.32;1.30;;;;;;;9.83;81.12;96303.91;4927096;29;20036;-71
2024/01/03 03:58:23;;;;;;;3.53;1.40;;;;;;;9.75;81.12;96284.63;4930487;29;20027;-71
2024/01/03 04:00:49;;;;;;;3.15;1.60;;;;;;;9.81;81.35;96292.63;4926165;29;20365;-71
2024/01/03 04:03:14;;;;;;;3.47;1.52;;;;;;;9.78;81.83;96293.22;4943646;28;20042;-71
2024/01/03 04:05:40;;;;;;;3.38;1.73;;;;;;;9.72;81.82;96300.53;4925372;29;20543;-71
2024/01/03 04:08:05;;;;;;;2.92;1.92;;;;;;;9.70;82.05;96306.22;4927438;29;20028;-71
2024/01/03 04:10:31;;;;;;;3.75;1.67;;;;;;;9.70;81.99;96306.22;4928090;29;20032;-71
2024/01/03 04:12:57;;;;;;;4.82;1.48;;;;;;;9.70;82.56;96313.47;4930789;29;20403;-72
2024/01/03 04:15:22;;;;;;;4.15;1.80;;;;;;;9.60;82.25;96292.88;4924524;29;20407;-72
2024/01/03 04:17:48;;;;;;;4.07;1.90;;;;;;;9.61;82.40;96305.19;4928586;29;20047;-72
2024/01/03 04:20:13;;;;;;;2.60;1.42;;;;;;;9.67;82.60;96309.44;4926675;29;20126;-71
2024/01/03 04:22:42;;;;;;;3.08;1.50;;;;;;;9.72;82.30;96317.47;4948961;29;20065;-71
2024/01/03 04:25:07;;;;;;;4.25;2.35;;;;;;;9.69;82.72;96318.03;4929116;29;20408;-73
2024/01/03 04:27:33;;;;;;;4.97;2.03;;;;;;;9.78;82.16;96325.50;4925538;29;20032;-71
2024/01/03 04:29:58;;;;;;;5.30;1.65;;;;;;;9.65;82.31;96308.94;4929592;29;20048;-72
2024/01/03 04:32:23;;;;;;;4.40;1.90;;;;;;;9.74;82.04;96309.91;4931859;29;20020;-73
2024/01/03 04:34:49;;;;;;;3.00;1.80;;;;;;;9.69;82.36;96304.59;4928274;29;20056;-72
2024/01/03 04:37:14;;;;;;;5.05;2.53;;;;;;;9.73;82.83;96324.44;4928553;29;20111;-72
2024/01/03 04:39:39;;;;;;;2.83;2.03;;;;;;;9.57;83.03;96301.47;4930162;29;20043;-72
2024/01/03 04:42:05;;;;;;;4.15;1.95;;;;;;;9.71;83.03;96326.59;4932759;29;20447;-71
2024/01/03 04:44:30;;;;;;;3.92;1.63;;;;;;;9.73;82.82;96318.28;4932159;29;20048;-72
2024/01/03 04:46:56;;;;;;;4.70;1.80;;;;;;;9.65;83.83;96335.81;4932691;29;20461;-73
2024/01/03 04:49:21;;;;;;;3.85;2.00;;;;;;;9.64;83.65;96330.69;4926464;29;20032;-72
2024/01/03 04:51:46;;;;;;;4.18;1.58;;;;;;;9.60;83.57;96325.13;4927395;29;20471;-73
2024/01/03 04:54:12;;;;;;;4.35;1.67;;;;;;;9.52;83.63;96349.91;4924400;29;20408;-72
2024/01/03 04:56:37;;;;;;;3.08;1.65;;;;;;;9.50;83.65;96330.56;4926685;29;20036;-72
2024/01/03 04:59:03;;;;;;;4.18;1.58;;;;;;;9.44;83.27;96353.22;4923677;29;20488;-72
2024/01/03 05:01:29;;;;;;;2.75;1.55;;;;;;;9.33;83.42;96319.47;4917202;29;20035;-72
2024/01/03 05:03:54;;;;;;;5.13;1.63;;;;;;;9.29;83.54;96334.53;4930022;29;20561;-72
2024/01/03 05:06:20;;;;;;;4.13;1.50;;;;;;;9.41;83.31;96345.72;4913615;29;20032;-72
2024/01/03 05:08:45;;;;;;;3.70;1.63;;;;;;;9.45;83.20;96349.41;4930048;29;20035;-71
2024/01/03 05:11:11;;;;;;;2.55;1.70;;;;;;;9.40;83.01;96357.56;4928548;29;20031;-71
2024/01/03 05:13:36;;;;;;;3.35;1.60;;;;;;;9.38;82.96;96329.38;4943866;28;20040;-71
2024/01/03 05:16:02;;;;;;;4.00;1.65;;;;;;;9.43;83.10;96358.84;4933320;29;20397;-71
2024/01/03 05:18:27;;;;;;;3.28;1.67;;;;;;;9.37;83.00;96339.31;4926635;29;20096;-71
2024/01/03 05:20:53;;;;;;;1.67;1.20;;;;;;;9.43;82.64;96356.16;4932339;29;20034;-71
2024/01/03 05:23:18;;;;;;;3.47;1.60;;;;;;;9.46;82.58;96351.03;4930506;29;20694;-71
2024/01/03 05:25:44;;;;;;;3.05;1.75;;;;;;;9.44;82.52;96347.84;4927653;29;20027;-71
2024/01/03 05:28:09;;;;;;;5.03;1.60;;;;;;;9.38;82.51;96338.19;4923266;29;20036;-71
2024/01/03 05:30:35;;;;;;;3.92;1.52;;;;;;;9.37;82.46;96362.66;4926101;29;20046;-71
2024/01/03 05:33:00;;;;;;;4.05;1.95;;;;;;;9.38;81.94;96348.16;4931354;29;20044;-71
2024/01/03 05:35:25;;;;;;;4.78;1.63;;;;;;;9.41;82.35;96361.00;4907977;29;20527;-71
2024/01/03 05:37:51;;;;;;;3.70;1.65;;;;;;;9.38;82.46;96354.31;4930698;29;20170;-70
2024/01/03 05:40:18;;;;;;;2.50;1.55;;;;;;;9.35;82.09;96341.47;4921441;29;20214;-72
2024/01/03 05:42:43;;;;;;;4.53;1.60;;;;;;;9.40;82.26;96360.25;4931771;29;20032;-72
2024/01/03 05:45:09;;;;;;;5.32;3.13;;;;;;;9.15;82.60;96322.81;4910264;29;20559;-72
2024/01/03 05:47:34;;;;;;;8.68;4.75;;;;;;;9.26;82.59;96340.47;4928890;29;20036;-72
2024/01/03 05:50:00;;;;;;;8.10;7.30;;;;;;;9.39;82.62;96364.00;4924876;29;20051;-72
2024/01/03 05:52:25;;;;;;;6.57;4.30;;;;;;;9.38;82.61;96359.69;4925424;29;20039;-72
2024/01/03 05:54:50;;;;;;;4.97;1.77;;;;;;;9.36;82.88;96361.88;4920628;29;20024;-70
2024/01/03 05:57:16;;;;;;;5.10;2.67;;;;;;;9.34;83.16;96372.09;4923805;29;20044;-70
2024/01/03 05:59:41;;;;;;;6.13;2.00;;;;;;;9.30;82.70;96357.63;4932095;29;20023;-70
2024/01/03 06:02:07;;;;;;;6.18;4.47;;;;;;;9.33;82.52;96367.81;4924275;29;20123;-70
2024/01/03 06:04:32;;;;;;;9.07;5.45;;;;;;;9.28;83.42;96359.78;4936157;29;20023;-70
2024/01/03 06:06:57;;;;;;;3.65;2.30;;;;;;;9.16;83.89;96348.59;4919735;29;20040;-70
2024/01/03 06:09:23;;;;;;;3.17;2.88;;;;;;;9.28;83.72;96359.78;4919546;29;20031;-70
2024/01/03 06:11:48;;;;;;;4.97;2.60;;;;;;;9.32;84.01;96382.31;4936684;29;20044;-70
2024/01/03 06:14:13;;;;;;;5.80;2.72;;;;;;;9.27;84.40;96385.03;4936173;29;20047;-70
2024/01/03 06:16:39;;;;;;;4.57;2.35;;;;;;;9.27;84.57;96379.66;4933761;29;20054;-70
2024/01/03 06:19:04;;;;;;;3.88;2.17;;;;;;;9.25;84.62;96376.47;4936421;29;20110;-70
2024/01/03 06:21:30;;;;;;;6.40;2.55;;;;;;;9.28;84.68;96370.53;4936277;29;20074;-70
2024/01/03 06:23:55;;;;;;;3.58;2.25;;;;;;;9.31;84.35;96386.06;4909813;29;20027;-70
2024/01/03 06:26:21;;;;;;;4.03;1.80;;;;;;;9.19;84.35;96368.72;4903196;29;20551;-71
2024/01/03 06:28:46;;;;;;;3.22;2.63;;;;;;;9.27;84.33;96382.34;4919556;29;20027;-70
2024/01/03 06:31:12;;;;;;;5.30;2.45;;;;;;;9.27;84.49;96385.03;4936115;29;20057;-70
2024/01/03 06:33:37;;;;;;;4.88;2.80;;;;;;;9.28;84.06;96375.91;4919067;29;20028;-70
2024/01/03 06:36:03;;;;;;;3.92;2.10;;;;;;;9.15;84.69;96365.78;4903143;29;20114;-70
2024/01/03 06:38:28;;;;;;;6.18;2.42;;;;;;;9.28;83.92;96386.66;4918996;29;20380;-70
2024/01/03 06:40:53;;;;;;;7.05;2.47;;;;;;;9.30;83.86;96394.41;4936050;29;20050;-71
2024/01/03 06:43:19;;;;;;;5.05;2.03;;;;;;;9.17;83.83;96385.09;4935799;29;20039;-71
2024/01/03 06:45:45;;;;;;;7.22;2.70;;;;;;;9.24;83.88;96400.94;4935701;29;20061;-71
2024/01/03 06:48:10;;;;;;;5.50;4.25;;;;;;;9.19;83.69;96391.03;4918936;29;20028;-72
2024/01/03 06:50:36;;;;;;;11.70;7.40;;;;;;;9.23;83.61;96405.50;4935805;29;20044;-71
2024/01/03 06:53:01;;;;;;;7.00;3.65;;;;;;;9.10;83.82;96398.06;4935733;29;20035;-70
2024/01/03 06:55:26;;;;;;;7.60;4.93;;;;;;;9.03;83.63;96405.63;4935581;29;20039;-70
2024/01/03 06:57:53;;;;;;;9.68;5.05;;;;;;;9.12;83.31;96421.94;4935748;29;20038;-70
2024/01/03 07:00:19;;;;;;;5.82;2.72;;;;;;;9.08;83.36;96408.25;4935545;29;20412;-70
2024/01/03 07:02:44;;;;;;;14.07;5.85;;;;;;;9.01;82.77;96405.09;4935771;29;20035;-70
2024/01/03 07:05:09;;;;;;;7.68;3.95;;;;;;;9.05;83.22;96433.78;4935201;29;20136;-70
2024/01/03 07:07:35;;;;;;;7.32;3.80;;;;;;;9.11;82.75;96413.09;4918286;29;20514;-70
2024/01/03 07:10:00;;;;;;;7.32;2.55;;;;;;;9.14;82.59;96428.66;4904557;29;20035;-70
2024/01/03 07:12:25;;;;;;;6.35;2.40;;;;;;;9.18;81.80;96424.31;4918314;29;20020;-70
2024/01/03 07:14:51;;;;;;;8.80;2.53;;;;;;;9.22;81.94;96430.72;4917587;29;20047;-70
2024/01/03 07:17:16;;;;;;;7.95;4.55;;;;;;;9.19;81.83;96425.94;4915888;29;20027;-70
2024/01/03 07:19:42;;;;;;;5.55;2.33;;;;;;;9.20;81.22;96427.53;4935413;29;20047;-70
2024/01/03 07:22:07;;;;;;;9.13;2.70;;;;;;;9.22;81.27;96425.34;4918117;29;20028;-70
2024/01/03 07:24:35;;;;;;;16.67;8.18;;;;;;;9.25;81.05;96418.63;4918022;29;20476;-71
2024/01/03 07:27:00;;;;;;;13.00;4.32;;;;;;;9.26;81.07;96415.69;4935324;29;20039;-70
2024/01/03 07:29:25;;;;;;;11.35;2.95;;;;;;;9.40;80.76;96431.97;4918048;29;20043;-70
2024/01/03 07:31:51;;;;;;;8.48;2.47;;;;;;;9.37;80.55;96429.84;4935106;29;20015;-71
2024/01/03 07:34:18;;;;;;;9.57;2.67;;;;;;;9.32;80.83;96427.97;4918011;29;20220;-70
2024/01/03 07:36:43;;;;;;;7.15;2.97;;;;;;;9.38;80.55;96429.53;4918177;29;20035;-70
2024/01/03 07:39:09;;;;;;;5.55;2.20;;;;;;;9.41;80.43;96433.56;4935103;29;20057;-70
2024/01/03 07:41:35;;;;;;;9.73;2.38;;;;;;;9.36;80.17;96410.22;4902058;29;20024;-71
2024/01/03 07:44:01;;;;;;;9.38;2.47;;;;;;;9.47;79.82;96417.13;4917895;29;20075;-72
2024/01/03 07:46:27;;;;;;;7.60;2.25;;;;;;;9.51;79.53;96428.91;4917431;29;20480;-71
2024/01/03 07:48:52;;;;;;;9.18;2.70;;;;;;;9.49;79.83;96431.09;4934837;29;20040;-72
2024/01/03 07:51:18;;;;;;;9.38;4.00;;;;;;;9.53;79.71;96426.75;4934462;29;20031;-72
2024/01/03 07:53:44;;;;;;;8.88;3.20;;;;;;;9.52;79.37;96427.03;4933484;29;20103;-71
2024/01/03 07:56:09;;;;;;;10.65;3.78;;;;;;;9.57;79.50;96427.78;4917520;29;20035;-72
2024/01/03 07:58:35;;;;;;;12.55;3.60;;;;;;;9.52;79.68;96430.50;4934776;29;20411;-71
2024/01/03 08:01:00;;;;;;;7.70;3.47;;;;;;;9.49;79.38;96414.97;4917434;29;20119;-72
2024/01/03 08:03:26;;;;;;;9.45;3.35;;;;;;;9.62;79.25;96435.00;4939218;28;20591;-72
2024/01/03 08:05:53;;;;;;;6.68;2.20;;;;;;;9.49;79.25;96409.59;4924702;29;20461;-71
2024/01/03 08:08:18;;;;;;;8.20;2.70;;;;;;;9.62;79.20;96425.06;4911890;29;20502;-71
2024/01/03 08:10:43;;;;;;;7.18;2.10;;;;;;;9.55;78.97;96419.22;4942542;29;20020;-70
2024/01/03 08:13:09;;;;;;;8.07;2.70;;;;;;;9.60;79.16;96421.84;4930497;29;20051;-72
2024/01/03 08:15:34;;;;;;;7.13;3.45;;;;;;;9.58;79.38;96413.28;4923718;29;20036;-72
2024/01/03 08:18:00;;;;;;;6.65;2.08;;;;;;;9.64;79.35;96424.78;4933261;29;20527;-75
2024/01/03 08:20:25;;;;;;;7.85;2.53;;;;;;;9.69;79.37;96425.53;4932966;29;20030;-71
2024/01/03 08:22:51;;;;;;;5.22;2.22;;;;;;;9.57;79.29;96408.16;4933193;29;20035;-75
2024/01/03 08:25:17;;;;;;;12.18;3.78;;;;;;;9.74;79.06;96427.38;4932290;29;20440;-74
2024/01/03 08:27:42;;;;;;;22.00;11.35;;;;;;;9.66;79.54;96409.97;4925929;29;20707;-71
2024/01/03 08:30:08;;;;;;;79.63;40.95;;;;;;;9.66;79.17;96409.19;4920996;29;20057;-71
2024/01/03 08:32:36;;;;;;;53.83;21.17;;;;;;;9.72;78.81;96425.00;4931601;29;20091;-71
2024/01/03 08:35:03;;;;;;;96.40;39.97;;;;;;;9.82;78.42;96423.28;4925723;29;20051;-72
2024/01/03 08:37:29;;;;;;;173.27;82.35;;;;;;;9.73;78.76;96410.44;4924635;29;20040;-72
2024/01/03 08:39:55;;;;;;;167.52;77.55;;;;;;;9.77;78.81;96426.00;4921766;29;20366;-72
2024/01/03 08:42:23;;;;;;;78.43;37.30;;;;;;;9.73;78.85;96407.75;4929706;29;20050;-72
2024/01/03 08:44:48;;;;;;;13.10;7.45;;;;;;;9.79;78.94;96429.22;4932339;29;20078;-72
2024/01/03 08:47:14;;;;;;;5.93;2.85;;;;;;;9.83;78.32;96430.25;4929350;29;20048;-72
2024/01/03 08:49:42;;;;;;;9.55;3.20;;;;;;;9.79;78.41;96418.47;4927401;29;20058;-72
2024/01/03 08:52:07;;;;;;;11.68;4.28;;;;;;;9.85;78.19;96410.06;4937760;29;20046;-72
2024/01/03 08:54:33;;;;;;;9.73;2.83;;;;;;;9.81;78.29;96394.78;4945760;28;20039;-71
2024/01/03 08:56:58;;;;;;;12.38;2.55;;;;;;;9.82;78.08;96396.41;4933830;29;20424;-72
2024/01/03 08:59:24;;;;;;;6.40;2.50;;;;;;;9.93;77.95;96414.03;4927965;29;20444;-72
2024/01/03 09:01:52;;;;;;;7.00;2.95;;;;;;;9.90;78.27;96393.09;4933661;29;20122;-72
2024/01/03 09:04:18;;;;;;;8.38;2.88;;;;;;;9.88;78.35;96387.19;4924415;29;20095;-72
2024/01/03 09:06:43;;;;;;;8.65;2.67;;;;;;;9.85;78.62;96393.16;4916336;29;20043;-72
2024/01/03 09:09:09;;;;;;;6.50;2.55;;;;;;;9.90;78.86;96409.22;4925168;29;20036;-72
2024/01/03 09:11:34;;;;;;;7.50;2.85;;;;;;;9.90;79.05;96393.09;4932549;29;20031;-71
2024/01/03 09:14:00;;;;;;;7.22;2.17;;;;;;;9.89;79.46;96397.69;4922375;29;20039;-72
2024/01/03 09:16:30;;;;;;;4.72;2.00;;;;;;;9.84;79.57;96388.84;4927403;29;20059;-72
2024/01/03 09:18:56;;;;;;;5.53;2.00;;;;;;;9.82;79.70;96370.34;4925864;29;20036;-71
2024/01/03 09:21:21;;;;;;;7.90;2.20;;;;;;;9.90;79.77;96390.41;4932174;29;20403;-71
2024/01/03 09:23:47;;;;;;;6.40;1.85;;;;;;;9.98;79.82;96392.47;4931779;29;20046;-72
2024/01/03 09:26:12;;;;;;;5.65;1.98;;;;;;;9.86;79.82;96386.69;4927339;29;20098;-72
2024/01/03 09:28:38;;;;;;;6.20;2.05;;;;;;;9.96;80.18;96402.72;4924288;29;20035;-71
2024/01/03 09:31:07;;;;;;;7.88;2.22;;;;;;;10.00;80.63;96399.19;4921353;29;20029;-72
2024/01/03 09:33:32;;;;;;;5.60;2.38;;;;;;;9.85;81.60;96401.22;4928400;29;20484;-72
2024/01/03 09:35:58;;;;;;;8.32;1.92;;;;;;;9.86;81.53;96406.31;4925459;29;20038;-71
2024/01/03 09:38:23;;;;;;;6.35;2.20;;;;;;;9.98;81.26;96384.41;4927309;29;20555;-72
2024/01/03 09:40:49;;;;;;;8.30;2.33;;;;;;;9.95;81.49;96384.97;4912587;29;20115;-72
2024/01/03 09:43:14;;;;;;;5.30;2.10;;;;;;;10.02;81.43;96406.94;4927631;29;20405;-72
2024/01/03 09:45:39;;;;;;;5.63;1.90;;;;;;;9.93;81.25;96377.19;4935419;29;20158;-72
2024/01/03 09:48:06;;;;;;;5.97;2.33;;;;;;;10.14;81.14;96400.13;4922923;29;20079;-72
2024/01/03 09:50:32;;;;;;;6.72;2.20;;;;;;;10.14;81.27;96410.09;4918498;29;20110;-72
2024/01/03 09:52:57;;;;;;;8.32;2.22;;;;;;;10.18;80.44;96411.94;4931598;29;20167;-73
2024/01/03 09:55:23;;;;;;;8.70;2.10;;;;;;;10.14;80.28;96410.09;4919494;29;20042;-72
2024/01/03 09:57:51;;;;;;;10.68;4.53;;;;;;;10.17;80.40;96399.56;4933951;29;20043;-71
2024/01/03 10:00:17;;;;;;;6.35;3.00;;;;;;;10.26;80.14;96413.19;4899168;29;20476;-71
2024/01/03 10:02:47;;;;;;;7.75;2.90;;;;;;;10.06;79.84;96370.34;4932617;29;20134;-72
2024/01/03 10:05:20;;;;;;;7.43;2.38;;;;;;;10.28;80.05;96401.06;4929465;29;20040;-72
2024/01/03 10:07:45;;;;;;;7.53;2.40;;;;;;;10.24;80.07;96399.22;4928261;29;20484;-72
2024/01/03 10:10:11;;;;;;;5.03;2.22;;;;;;;10.23;80.19;96381.47;4911140;29;20030;-71
2024/01/03 10:12:36;;;;;;;4.93;1.85;;;;;;;10.30;79.96;96392.69;4929449;29;20139;-72
2024/01/03 10:15:15;;;;;;;6.90;2.30;;;;;;;10.10;79.35;96376.75;4933804;29;20023;-72
2024/01/03 10:17:46;;;;;;;5.25;2.00;;;;;;;10.23;79.89;96392.22;4913494;29;20435;-72
2024/01/03 10:20:25;;;;;;;5.00;1.80;;;;;;;10.33;79.84;96413.66;4915135;29;20028;-72
2024/01/03 10:23:10;;;;;;;5.50;1.90;;;;;;;10.34;80.53;96404.47;4929766;29;20468;-72
2024/01/03 10:25:36;;;;;;;4.53;2.03;;;;;;;10.31;81.71;96391.63;4911230;29;20032;-72
2024/01/03 10:28:08;;;;;;;7.68;2.17;;;;;;;10.22;82.30;96386.03;4927409;29;20030;-76
2024/01/03 10:30:34;;;;;;;6.40;2.70;;;;;;;10.27;82.86;96387.88;4912409;29;20519;-72
2024/01/03 10:33:01;;;;;;;4.40;2.15;;;;;;;10.22;83.77;96396.81;4933098;29;20106;-72
2024/01/03 10:35:30;;;;;;;7.78;2.58;;;;;;;10.07;84.06;96388.06;4934837;29;20036;-72
2024/01/03 10:37:59;;;;;;;7.72;2.90;;;;;;;10.16;84.55;96375.63;4932310;29;20060;-72
2024/01/03 10:40:29;;;;;;;6.68;2.85;;;;;;;9.99;85.28;96364.53;4932279;29;20369;-72
2024/01/03 10:42:55;;;;;;;7.85;4.00;;;;;;;10.15;85.13;96368.66;4927701;29;20100;-72
2024/01/03 10:45:21;;;;;;;4.60;2.20;;;;;;;9.98;85.58;96357.53;4930068;29;20051;-75
2024/01/03 10:47:47;;;;;;;9.23;2.65;;;;;;;10.15;85.52;96368.66;4931513;29;20040;-72
2024/01/03 10:50:13;;;;;;;5.82;2.30;;;;;;;10.11;85.87;96370.28;4933903;29;20106;-72
2024/01/03 10:52:40;;;;;;;7.28;2.95;;;;;;;10.02;86.30;96353.16;4934610;29;20031;-72
2024/01/03 10:55:09;;;;;;;4.80;2.00;;;;;;;10.06;85.97;96359.59;4933298;29;20043;-72
2024/01/03 10:57:35;;;;;;;7.32;2.35;;;;;;;10.05;86.13;96357.97;4949818;28;20051;-73
2024/01/03 11:00:15;;;;;;;6.45;2.30;;;;;;;10.03;86.14;96376.31;4937606;29;20059;-72
2024/01/03 11:02:55;;;;;;;3.35;2.13;;;;;;;9.99;86.43;96364.53;4921655;29;20048;-72
2024/01/03 11:05:27;;;;;;;4.43;2.13;;;;;;;10.04;86.44;96367.94;4935550;29;20087;-73
2024/01/03 11:07:56;;;;;;;4.05;2.13;;;;;;;10.05;86.70;96348.03;4937792;29;20168;-73
2024/01/03 11:10:51;;;;;;;3.70;2.03;;;;;;;10.20;86.46;96364.00;4913626;29;20028;-73
2024/01/03 11:13:30;;;;;;;4.53;2.08;;;;;;;10.16;86.27;96343.34;4929671;29;20046;-73
2024/01/03 11:15:58;;;;;;;3.40;1.92;;;;;;;10.09;86.05;96337.50;4935395;29;20455;-72
2024/01/03 11:18:41;;;;;;;4.47;2.20;;;;;;;10.11;86.15;96363.03;4927736;29;20032;-73
2024/01/03 11:21:28;;;;;;;7.45;2.22;;;;;;;10.11;85.70;96395.31;4931482;29;20043;-73
2024/01/03 11:23:54;;;;;;;6.25;2.38;;;;;;;10.20;85.38;96387.41;4934063;29;20415;-73
2024/01/03 11:26:19;;;;;;;3.58;1.83;;;;;;;10.18;84.84;96374.25;4928799;29;20032;-73
2024/01/03 11:28:48;;;;;;;6.10;2.00;;;;;;;10.41;84.06;96372.66;4924974;29;20403;-73
2024/01/03 11:31:15;;;;;;;4.43;2.20;;;;;;;10.43;83.17;96356.22;4927558;29;20024;-73
2024/01/03 11:33:41;;;;;;;3.47;1.77;;;;;;;10.75;83.26;96362.53;4933542;29;20035;-73
2024/01/03 11:36:07;;;;;;;6.22;2.00;;;;;;;10.75;82.61;96350.97;4925779;29;20131;-73